Humidity-temperature Sensor

Selected Measurement Type: Air Temperature

 
Air Temperature [°C]     6 entries per hour
Showing data from 4/27/2015 (18:00:00 Z) to 4/24/2015 (00:01:00 Z)
Previous Next [ Day | 3-Days | 7-Days ]
First Last
Prev [ Day | 3-Days | 7-Days ] Next
First Last

Start Time:     :
End Time:     :     
Time (in GMT) :00 :50 :40 :30 :20 :10
Previous Next [ Day | 3-Days | 7-Days ]
First Last
Prev [ Day | 3-Days | 7-Days ] Next
First Last


123 => good data
MM => data is determined as missing
-- => data not received/configured
Back to Top Back to Top
4/27/2015 18:00 to 17:10 26.36 26.02 26.04 25.94 25.91 25.77
4/27/2015 17:00 to 16:10 26.01 25.80 26.10 26.24 26.67 26.49
4/27/2015 16:00 to 15:10 27.67 27.70 27.63 27.89 27.73 27.63
4/27/2015 15:00 to 14:10 27.67 27.81 27.85 27.73 27.70 27.66
4/27/2015 14:00 to 13:10 27.53 27.59 27.57 27.39 27.41 27.33
4/27/2015 13:00 to 12:10 27.35 27.40 27.40 27.36 27.32 27.44
4/27/2015 12:00 to 11:10 27.35 27.38 27.38 27.37 27.56 27.40
4/27/2015 11:00 to 10:10 27.51 27.40 27.39 27.37 27.35 27.55
4/27/2015 10:00 to 9:10 27.50 27.53 27.49 27.40 27.50 27.66
4/27/2015 09:00 to 8:10 27.50 27.41 27.50 27.51 27.56 27.67
4/27/2015 08:00 to 7:10 27.60 27.64 27.64 27.58 27.63 27.66
4/27/2015 07:00 to 6:10 27.72 27.81 27.76 27.86 27.70 27.73
4/27/2015 06:00 to 5:10 27.66 27.69 27.58 27.71 27.78 27.75
4/27/2015 05:00 to 4:10 27.80 27.74 27.81 27.94 27.96 27.97
4/27/2015 04:00 to 3:10 27.89 27.84 27.82 27.69 27.61 27.57
4/27/2015 03:00 to 2:10 27.68 27.48 27.67 27.41 27.57 27.53
4/27/2015 02:00 to 1:10 27.51 27.38 27.42 27.44 27.42 27.32
4/27/2015 01:00 to 0:10 27.39 27.48 27.50 27.65 27.51 27.74
4/27/2015 00:00 to 23:10 27.75 27.57 27.57 27.44 27.72 27.70
4/26/2015 23:00 to 22:10 27.65 27.77 27.75 28.00 27.87 27.94
4/26/2015 22:00 to 21:10 27.84 27.95 27.67 27.71 27.90 27.86
4/26/2015 21:00 to 20:10 27.80 27.86 27.71 27.86 27.86 27.97
4/26/2015 20:00 to 19:10 27.91 27.82 27.96 27.87 27.88 27.98
4/26/2015 19:00 to 18:10 27.81 27.92 27.96 27.98 28.06 27.78
4/26/2015 18:00 to 17:10 27.72 27.94 27.73 27.85 27.86 27.87
4/26/2015 17:00 to 16:10 27.78 27.83 27.96 27.99 27.91 28.13
4/26/2015 16:00 to 15:10 27.87 27.80 27.84 27.92 27.88 27.86
4/26/2015 15:00 to 14:10 27.85 27.91 27.73 27.73 26.52 27.24
4/26/2015 14:00 to 13:10 27.64 27.61 27.46 27.60 27.50 27.65
4/26/2015 13:00 to 12:10 27.60 27.56 27.57 27.43 27.49 27.35
4/26/2015 12:00 to 11:10 27.43 27.34 27.39 27.37 27.29 27.52
4/26/2015 11:00 to 10:10 27.27 27.33 27.33 27.25 27.34 27.50
4/26/2015 10:00 to 9:10 27.43 27.50 27.47 27.30 27.33 27.31
4/26/2015 09:00 to 8:10 27.42 27.48 27.72 27.47 27.47 27.55
4/26/2015 08:00 to 7:10 -- -- -- -- -- --
4/26/2015 07:00 to 6:10 27.79 27.68 27.66 27.65 27.80 27.55
4/26/2015 06:00 to 5:10 -- -- -- -- -- --
4/26/2015 05:00 to 4:10 27.61 27.76 27.78 27.55 27.58 27.67
4/26/2015 04:00 to 3:10 27.73 27.88 27.75 27.68 27.78 27.85
4/26/2015 03:00 to 2:10 27.80 27.88 27.73 27.75 27.82 27.50
4/26/2015 02:00 to 1:10 27.40 27.58 27.90 27.77 27.77 27.83
4/26/2015 01:00 to 0:10 27.86 27.74 27.80 27.76 27.73 27.76
4/26/2015 00:00 to 23:10 27.79 27.82 27.81 27.84 27.92 27.98
4/25/2015 23:00 to 22:10 27.81 27.94 28.04 27.97 27.93 27.92
4/25/2015 22:00 to 21:10 27.89 28.09 28.12 28.11 28.11 28.13
4/25/2015 21:00 to 20:10 28.24 28.12 28.12 28.08 28.13 28.09
4/25/2015 20:00 to 19:10 28.02 28.20 28.30 28.23 28.13 28.20
4/25/2015 19:00 to 18:10 28.24 28.28 28.26 28.17 28.19 28.15
4/25/2015 18:00 to 17:10 27.88 27.68 28.34 28.09 28.12 27.84
4/25/2015 17:00 to 16:10 27.80 27.65 28.09 28.13 28.16 28.00
4/25/2015 16:00 to 15:10 27.88 27.95 28.04 27.79 27.95 27.94
4/25/2015 15:00 to 14:10 28.01 27.96 27.91 28.18 27.71 27.69
4/25/2015 14:00 to 13:10 27.55 27.59 27.53 27.59 27.35 27.32
4/25/2015 13:00 to 12:10 26.81 26.53 27.67 27.65 27.51 27.02
4/25/2015 12:00 to 11:10 26.95 26.94 26.92 26.90 27.66 27.36
4/25/2015 11:00 to 10:10 27.24 27.20 26.97 26.95 27.07 26.94
4/25/2015 10:00 to 9:10 26.95 26.82 26.46 26.92 27.70 27.77
4/25/2015 09:00 to 8:10 27.84 27.65 27.75 27.90 27.66 27.69
4/25/2015 08:00 to 7:10 27.50 27.10 26.99 26.52 27.63 27.51
4/25/2015 07:00 to 6:10 27.57 27.66 27.41 27.66 27.31 27.03
4/25/2015 06:00 to 5:10 26.72 27.50 27.55 27.56 27.49 27.38
4/25/2015 05:00 to 4:10 27.18 27.32 27.15 27.41 27.44 27.38
4/25/2015 04:00 to 3:10 27.32 27.35 27.12 27.00 27.28 27.07
4/25/2015 03:00 to 2:10 27.39 27.22 27.19 26.99 27.29 27.44
4/25/2015 02:00 to 1:10 27.42 27.34 27.37 27.34 27.15 27.24
4/25/2015 01:00 to 0:10 27.37 27.28 27.34 27.41 27.18 27.64
4/25/2015 00:00 to 23:10 27.32 27.14 27.28 27.15 27.01 27.86
4/24/2015 23:00 to 22:10 27.77 27.38 28.03 28.06 28.06 27.96
4/24/2015 22:00 to 21:10 27.95 28.05 27.82 27.78 27.91 27.87
4/24/2015 21:00 to 20:10 27.87 27.93 27.71 27.90 27.98 27.74
4/24/2015 20:00 to 19:10 27.85 27.83 27.93 27.85 27.79 27.74
4/24/2015 19:00 to 18:10 27.80 27.93 27.79 27.75 27.73 27.56
4/24/2015 18:00 to 17:10 27.69 27.63 27.74 27.53 27.82 27.88
4/24/2015 17:00 to 16:10 27.88 27.73 27.90 27.97 27.82 27.50
4/24/2015 16:00 to 15:10 26.94 26.43 26.16 26.36 27.69 27.85
4/24/2015 15:00 to 14:10 27.59 27.78 27.69 27.64 27.37 27.27
4/24/2015 14:00 to 13:10 27.17 27.26 26.89 26.70 26.08 26.97
4/24/2015 13:00 to 12:10 27.03 26.79 26.47 26.33 26.30 26.55
4/24/2015 12:00 to 11:10 27.38 27.30 26.91 26.67 26.97 27.03
4/24/2015 11:00 to 10:10 27.05 27.24 27.06 26.91 26.85 26.64
4/24/2015 10:00 to 9:10 26.41 26.19 25.99 26.89 26.76 26.90
4/24/2015 09:00 to 8:10 27.16 26.24 27.26 27.29 27.25 27.24
4/24/2015 08:00 to 7:10 27.17 27.23 27.12 27.18 27.44 27.52
4/24/2015 07:00 to 6:10 27.29 27.24 27.10 27.01 26.51 26.01
4/24/2015 06:00 to 5:10 26.09 26.25 26.83 26.89 26.71 26.89
4/24/2015 05:00 to 4:10 26.72 26.70 26.66 26.68 26.64 26.29
4/24/2015 04:00 to 3:10 26.89 26.49 26.64 26.46 26.27 26.42
4/24/2015 03:00 to 2:10 27.66 27.76 27.70 27.20 26.80 27.76
4/24/2015 02:00 to 1:10 28.12 28.04 27.92 27.94 27.90 27.98
4/24/2015 01:00 to 0:10 28.09 28.02 27.96 28.02 28.05 28.03